createdAt,value
2023-04-09T00:01:40.750Z,9.70
2023-04-09T00:04:09.386Z,9.70
2023-04-09T00:06:38.479Z,9.70
2023-04-09T00:09:08.126Z,9.70
2023-04-09T00:11:36.326Z,9.80
2023-04-09T00:14:04.535Z,9.70
2023-04-09T00:16:32.825Z,9.70
2023-04-09T00:19:01.129Z,9.70
2023-04-09T00:21:29.525Z,9.70
2023-04-09T00:23:57.696Z,9.70
2023-04-09T00:26:27.559Z,9.80
2023-04-09T00:28:56.199Z,9.60
2023-04-09T00:31:24.688Z,9.80
2023-04-09T00:33:53.044Z,9.70
2023-04-09T00:36:21.265Z,9.70
2023-04-09T00:38:51.834Z,9.80
2023-04-09T00:41:20.832Z,9.70
2023-04-09T00:43:50.747Z,9.70
2023-04-09T00:46:19.480Z,9.70
2023-04-09T00:48:47.721Z,9.60
2023-04-09T00:51:16.568Z,9.60
2023-04-09T00:53:44.954Z,9.50
2023-04-09T00:56:16.392Z,9.50
2023-04-09T00:58:44.603Z,9.40
2023-04-09T01:01:14.167Z,9.40
2023-04-09T01:03:43.652Z,9.40
2023-04-09T01:06:33.765Z,9.40
2023-04-09T01:09:07.278Z,9.30
2023-04-09T01:11:40.048Z,9.30
2023-04-09T01:14:15.608Z,9.30
2023-04-09T01:16:48.746Z,9.20
2023-04-09T01:19:34.657Z,9.20
2023-04-09T01:22:04.989Z,9.20
2023-04-09T01:24:46.185Z,9.20
2023-04-09T01:27:15.708Z,9.10
2023-04-09T01:29:49.094Z,9.10
2023-04-09T01:32:20.416Z,9.10
2023-04-09T01:34:50.312Z,9.00
2023-04-09T01:37:20.041Z,8.90
2023-04-09T01:39:48.586Z,8.90
2023-04-09T01:42:18.838Z,9.00
2023-04-09T01:44:49.190Z,8.90
2023-04-09T01:47:17.761Z,8.90
2023-04-09T01:49:47.068Z,8.70
2023-04-09T01:52:16.154Z,8.90
2023-04-09T01:54:44.293Z,8.80
2023-04-09T01:57:12.559Z,8.80
2023-04-09T01:59:41.200Z,8.80
2023-04-09T02:02:13.887Z,8.80
2023-04-09T02:04:47.678Z,8.60
2023-04-09T02:07:24.551Z,8.70
2023-04-09T02:09:55.075Z,8.60
2023-04-09T02:12:25.659Z,8.50
2023-04-09T02:14:55.722Z,8.50
2023-04-09T02:17:25.348Z,8.50
2023-04-09T02:19:53.606Z,8.50
2023-04-09T02:22:21.924Z,8.50
2023-04-09T02:24:50.141Z,8.40
2023-04-09T02:27:18.572Z,8.40
2023-04-09T02:29:47.147Z,8.50
2023-04-09T02:32:15.611Z,8.40
2023-04-09T02:34:45.878Z,8.40
2023-04-09T02:37:14.396Z,8.40
2023-04-09T02:39:42.647Z,8.30
2023-04-09T02:42:11.101Z,8.30
2023-04-09T02:44:39.401Z,8.40
2023-04-09T02:47:07.780Z,8.30
2023-04-09T02:49:36.127Z,8.40
2023-04-09T02:52:05.912Z,8.30
2023-04-09T02:54:34.217Z,8.30
2023-04-09T02:57:02.459Z,8.20
2023-04-09T02:59:33.025Z,8.20
2023-04-09T03:02:01.207Z,8.20
2023-04-09T03:04:29.640Z,8.20
2023-04-09T03:06:57.848Z,8.20
2023-04-09T03:09:27.445Z,8.10
2023-04-09T03:11:56.492Z,8.10
2023-04-09T03:14:24.848Z,8.10
2023-04-09T03:16:53.408Z,8.10
2023-04-09T03:19:21.611Z,8.10
2023-04-09T03:21:51.492Z,8.20
2023-04-09T03:24:19.753Z,8.00
2023-04-09T03:26:49.629Z,8.00
2023-04-09T03:29:18.151Z,8.00
2023-04-09T03:31:46.420Z,8.20
2023-04-09T03:34:14.866Z,8.10
2023-04-09T03:36:43.123Z,8.00
2023-04-09T03:39:11.369Z,8.00
2023-04-09T03:41:39.686Z,8.00
2023-04-09T03:44:09.478Z,8.00
2023-04-09T03:46:37.809Z,8.10
2023-04-09T03:49:06.158Z,8.20
2023-04-09T03:51:34.399Z,8.00
2023-04-09T03:54:03.063Z,8.10
2023-04-09T03:56:31.256Z,8.10
2023-04-09T03:58:59.638Z,8.10
2023-04-09T04:01:29.282Z,8.20
2023-04-09T04:03:57.652Z,8.20
2023-04-09T04:06:26.110Z,8.10
2023-04-09T04:08:55.034Z,8.20
2023-04-09T04:11:23.372Z,8.20
2023-04-09T04:13:51.669Z,8.20
2023-04-09T04:16:19.889Z,8.20
2023-04-09T04:18:49.592Z,8.20
2023-04-09T04:21:18.265Z,8.20
2023-04-09T04:23:46.757Z,8.20
2023-04-09T04:26:14.963Z,8.30
2023-04-09T04:28:43.611Z,8.30
2023-04-09T04:31:13.106Z,8.20
2023-04-09T04:33:42.872Z,8.20
2023-04-09T04:36:13.959Z,8.20
2023-04-09T04:38:43.029Z,8.40
2023-04-09T04:41:12.475Z,8.20
2023-04-09T04:43:42.126Z,8.30
2023-04-09T04:46:10.659Z,8.20
2023-04-09T04:48:38.899Z,8.30
2023-04-09T04:51:07.420Z,8.20
2023-04-09T04:53:37.009Z,8.40
2023-04-09T04:56:06.368Z,8.40
2023-04-09T04:58:34.615Z,8.30
2023-04-09T05:01:03.070Z,8.30
2023-04-09T05:03:31.386Z,8.30
2023-04-09T05:05:59.786Z,8.40
2023-04-09T05:08:28.061Z,8.30
2023-04-09T05:10:57.709Z,8.40
2023-04-09T05:13:26.013Z,8.30
2023-04-09T05:15:54.244Z,8.20
2023-04-09T05:18:22.443Z,8.40
2023-04-09T05:20:51.028Z,8.40
2023-04-09T05:23:19.202Z,8.50
2023-04-09T05:25:49.705Z,8.50
2023-04-09T05:28:19.244Z,8.50
2023-04-09T05:30:48.129Z,8.40
2023-04-09T05:33:16.401Z,8.40
2023-04-09T05:35:44.889Z,8.50
2023-04-09T05:38:14.814Z,8.40
2023-04-09T05:40:45.036Z,8.50
2023-04-09T05:43:13.528Z,8.50
2023-04-09T05:45:43.288Z,8.50
2023-04-09T05:48:11.698Z,8.40
2023-04-09T05:50:51.465Z,8.50
2023-04-09T05:53:23.592Z,8.60
2023-04-09T05:55:51.965Z,8.50
2023-04-09T05:58:20.462Z,8.50
2023-04-09T06:00:51.628Z,8.50
2023-04-09T06:03:20.399Z,8.60
2023-04-09T06:05:49.202Z,8.50
2023-04-09T06:08:17.440Z,8.60
2023-04-09T06:10:45.599Z,8.60
2023-04-09T06:13:13.903Z,8.50
2023-04-09T06:15:42.100Z,8.40
2023-04-09T06:18:11.982Z,8.30
2023-04-09T06:20:41.524Z,8.50
2023-04-09T06:23:09.819Z,8.40
2023-04-09T06:25:38.199Z,8.50
2023-04-09T06:28:06.743Z,8.50
2023-04-09T06:30:37.133Z,8.60
2023-04-09T06:33:05.451Z,8.60
2023-04-09T06:35:35.054Z,8.60
2023-04-09T06:38:03.568Z,8.50
2023-04-09T06:40:31.802Z,8.60
2023-04-09T06:43:00.115Z,8.70
2023-04-09T06:45:28.522Z,8.70
2023-04-09T06:47:57.221Z,8.80
2023-04-09T06:50:25.812Z,8.80
2023-04-09T06:52:55.604Z,8.80
2023-04-09T06:55:23.760Z,8.80
2023-04-09T06:57:52.398Z,8.90
2023-04-09T07:00:20.655Z,8.90
2023-04-09T07:02:49.156Z,8.90
2023-04-09T07:05:17.946Z,9.00
2023-04-09T07:07:46.458Z,9.00
2023-04-09T07:10:16.420Z,9.10
2023-04-09T07:12:44.693Z,9.20
2023-04-09T07:15:13.065Z,9.20
2023-04-09T07:17:41.796Z,9.10
2023-04-09T07:20:11.084Z,9.30
2023-04-09T07:22:40.208Z,9.30
2023-04-09T07:25:10.135Z,9.40
2023-04-09T07:27:40.114Z,9.50
2023-04-09T07:30:10.783Z,9.50
2023-04-09T07:32:40.016Z,9.50
2023-04-09T07:35:10.819Z,9.50
2023-04-09T07:37:39.590Z,9.60
2023-04-09T07:40:12.241Z,9.60
2023-04-09T07:42:42.833Z,9.50
2023-04-09T07:45:11.254Z,9.60
2023-04-09T07:47:42.171Z,9.60
2023-04-09T07:50:16.702Z,9.70
2023-04-09T07:52:45.917Z,9.60
2023-04-09T07:55:16.263Z,9.70
2023-04-09T07:57:47.072Z,9.70
2023-04-09T08:00:16.562Z,9.80
2023-04-09T08:02:45.859Z,9.70
2023-04-09T08:05:32.172Z,9.80
2023-04-09T08:08:01.827Z,9.80
2023-04-09T08:10:30.731Z,9.90
2023-04-09T08:13:01.648Z,9.90
2023-04-09T08:15:30.501Z,9.90
2023-04-09T08:17:59.236Z,10.00
2023-04-09T08:20:29.542Z,9.90
2023-04-09T08:22:59.438Z,10.10
2023-04-09T08:25:28.590Z,10.20
2023-04-09T08:27:57.061Z,10.30
2023-04-09T08:30:27.455Z,10.40
2023-04-09T08:32:56.106Z,10.40
2023-04-09T08:35:28.510Z,10.40
2023-04-09T08:38:01.850Z,10.60
2023-04-09T08:40:35.069Z,10.60
2023-04-09T08:43:06.724Z,10.70
2023-04-09T08:45:36.790Z,10.70
2023-04-09T08:48:06.578Z,10.70
2023-04-09T08:50:34.975Z,10.80
2023-04-09T08:53:05.741Z,10.90
2023-04-09T08:55:35.549Z,11.00
2023-04-09T08:58:07.275Z,11.10
2023-04-09T09:00:37.103Z,11.10
2023-04-09T09:03:07.276Z,11.30
2023-04-09T09:05:39.894Z,11.50
2023-04-09T09:08:10.129Z,11.50
2023-04-09T09:10:39.731Z,11.60
2023-04-09T09:13:22.521Z,11.60
2023-04-09T09:15:55.303Z,11.80
2023-04-09T09:18:39.786Z,11.70
2023-04-09T09:21:14.472Z,11.70
2023-04-09T09:23:43.397Z,11.70
2023-04-09T09:26:16.390Z,11.70
2023-04-09T09:28:45.456Z,11.80
2023-04-09T09:31:16.029Z,12.00
2023-04-09T09:33:44.830Z,12.00
2023-04-09T09:36:13.482Z,12.30
2023-04-09T09:38:56.454Z,12.60
2023-04-09T09:41:26.019Z,12.80
2023-04-09T09:43:54.565Z,13.10
2023-04-09T09:46:27.468Z,13.30
2023-04-09T09:48:57.608Z,13.60
2023-04-09T09:51:29.774Z,13.70
2023-04-09T09:53:58.874Z,13.80
2023-04-09T09:56:33.412Z,13.90
2023-04-09T09:59:15.320Z,14.00
2023-04-09T10:01:48.909Z,14.10
2023-04-09T10:04:21.192Z,14.20
2023-04-09T10:06:53.329Z,14.30
2023-04-09T10:09:28.127Z,14.40
2023-04-09T10:11:59.360Z,14.50
2023-04-09T10:14:29.396Z,14.60
2023-04-09T10:16:59.364Z,14.70
2023-04-09T10:19:28.204Z,14.80
2023-04-09T10:22:06.220Z,15.10
2023-04-09T10:24:39.750Z,15.20
2023-04-09T10:27:15.104Z,15.20
2023-04-09T10:29:46.536Z,15.50
2023-04-09T10:32:23.590Z,15.70
2023-04-09T10:34:58.496Z,15.90
2023-04-09T10:37:34.212Z,16.00
2023-04-09T10:40:05.227Z,16.10
2023-04-09T10:42:36.686Z,16.20
2023-04-09T10:45:22.413Z,16.20
2023-04-09T10:47:54.865Z,16.30
2023-04-09T10:50:30.928Z,16.50
2023-04-09T10:53:00.755Z,16.70
2023-04-09T10:55:35.452Z,16.70
2023-04-09T10:58:05.864Z,16.60
2023-04-09T11:00:37.941Z,16.70
2023-04-09T11:03:24.926Z,16.80
2023-04-09T11:06:01.081Z,16.90
2023-04-09T11:08:32.271Z,16.90
2023-04-09T11:11:01.535Z,17.00
2023-04-09T11:13:31.359Z,17.10
2023-04-09T11:16:01.205Z,17.20
2023-04-09T11:18:34.042Z,17.30
2023-04-09T11:21:04.302Z,17.60
2023-04-09T11:23:33.590Z,17.80
2023-04-09T11:26:03.908Z,17.80
2023-04-09T11:28:32.294Z,18.00
2023-04-09T11:31:00.592Z,18.00
2023-04-09T11:33:34.809Z,18.20
2023-04-09T11:36:06.426Z,18.30
2023-04-09T11:38:35.148Z,18.50
2023-04-09T11:41:03.360Z,18.50
2023-04-09T11:43:31.733Z,18.50
2023-04-09T11:46:00.751Z,18.60
2023-04-09T11:48:29.189Z,18.60
2023-04-09T11:50:59.084Z,18.60
2023-04-09T11:53:32.211Z,18.70
2023-04-09T11:56:01.649Z,18.70
2023-04-09T11:58:29.910Z,18.80
2023-04-09T12:01:00.419Z,18.80
2023-04-09T12:03:30.786Z,18.70
2023-04-09T12:06:03.882Z,18.90
2023-04-09T12:08:34.624Z,18.90
2023-04-09T12:11:11.456Z,19.00
2023-04-09T12:13:43.256Z,18.90
2023-04-09T12:16:12.274Z,19.10
2023-04-09T12:18:41.178Z,19.10
2023-04-09T12:21:10.924Z,19.10
2023-04-09T12:23:39.119Z,19.10
2023-04-09T12:26:07.974Z,19.30
2023-04-09T12:28:37.148Z,19.30
2023-04-09T12:31:06.178Z,19.40
2023-04-09T12:33:37.969Z,19.50
2023-04-09T12:36:06.567Z,19.60
2023-04-09T12:38:36.118Z,19.70
2023-04-09T12:41:04.968Z,19.70
2023-04-09T12:43:40.269Z,19.70
2023-04-09T12:46:08.787Z,19.50
2023-04-09T12:48:40.478Z,19.50
2023-04-09T12:51:09.153Z,19.40
2023-04-09T12:53:46.090Z,19.30
2023-04-09T12:56:14.613Z,19.30
2023-04-09T12:58:42.992Z,19.30
2023-04-09T13:01:11.486Z,19.30
2023-04-09T13:03:41.480Z,19.20
2023-04-09T13:06:10.256Z,19.30
2023-04-09T13:08:38.536Z,19.20
2023-04-09T13:11:08.434Z,19.10
2023-04-09T13:13:36.606Z,19.10
2023-04-09T13:16:05.398Z,19.10
2023-04-09T13:18:35.749Z,19.10
2023-04-09T13:21:04.503Z,19.10
2023-04-09T13:23:33.276Z,19.10
2023-04-09T13:26:01.748Z,19.10
2023-04-09T13:28:31.289Z,19.10
2023-04-09T13:30:59.514Z,19.20
2023-04-09T13:33:28.013Z,19.20
2023-04-09T13:35:58.354Z,19.30
2023-04-09T13:38:26.722Z,19.30
2023-04-09T13:40:56.465Z,19.40
2023-04-09T13:43:28.139Z,19.50
2023-04-09T13:45:58.274Z,19.50
2023-04-09T13:48:26.902Z,19.50
2023-04-09T13:50:57.656Z,19.50
2023-04-09T13:53:26.208Z,19.50
2023-04-09T13:55:54.586Z,19.50
2023-04-09T13:58:24.896Z,19.50
2023-04-09T14:00:53.478Z,19.60
2023-04-09T14:03:24.902Z,19.50
2023-04-09T14:05:53.675Z,19.50
2023-04-09T14:08:22.264Z,19.40
2023-04-09T14:10:52.530Z,19.50
2023-04-09T14:13:21.639Z,19.50
2023-04-09T14:15:50.067Z,19.50
2023-04-09T14:18:18.570Z,19.50
2023-04-09T14:20:48.132Z,19.40
2023-04-09T14:23:16.604Z,19.50
2023-04-09T14:25:46.092Z,19.50
2023-04-09T14:28:14.366Z,19.50
2023-04-09T14:30:45.569Z,19.50
2023-04-09T14:33:13.854Z,19.40
2023-04-09T14:35:42.347Z,19.40
2023-04-09T14:38:13.233Z,19.40
2023-04-09T14:40:41.475Z,19.50
2023-04-09T14:43:09.918Z,19.30
2023-04-09T14:45:38.323Z,19.40
2023-04-09T14:48:06.808Z,19.30
2023-04-09T14:50:36.198Z,19.20
2023-04-09T14:53:06.670Z,19.10
2023-04-09T14:55:36.236Z,19.20
2023-04-09T14:58:07.281Z,19.20
2023-04-09T15:00:36.102Z,19.20
2023-04-09T15:03:05.044Z,19.10
2023-04-09T15:05:33.452Z,19.10
2023-04-09T15:08:02.531Z,19.10
2023-04-09T15:10:32.451Z,19.00
2023-04-09T15:13:02.254Z,19.00
2023-04-09T15:15:30.586Z,19.00
2023-04-09T15:18:05.697Z,19.00
2023-04-09T15:20:37.574Z,19.00
2023-04-09T15:23:05.997Z,18.90
2023-04-09T15:25:34.419Z,18.90
2023-04-09T15:28:04.457Z,18.80
2023-04-09T15:30:35.544Z,18.70
2023-04-09T15:33:06.321Z,18.80
2023-04-09T15:35:35.305Z,18.60
2023-04-09T15:38:03.806Z,18.60
2023-04-09T15:40:32.776Z,18.60
2023-04-09T15:43:02.212Z,18.70
2023-04-09T15:45:32.014Z,18.60
2023-04-09T15:48:00.402Z,18.60
2023-04-09T15:50:28.933Z,18.60
2023-04-09T15:52:58.595Z,18.60
2023-04-09T15:55:30.786Z,18.50
2023-04-09T15:57:59.502Z,18.50
2023-04-09T16:00:29.337Z,18.60
2023-04-09T16:03:02.759Z,18.50
2023-04-09T16:05:32.745Z,18.40
2023-04-09T16:08:02.427Z,18.30
2023-04-09T16:10:32.044Z,18.20
2023-04-09T16:13:01.151Z,18.30
2023-04-09T16:15:29.955Z,18.20
2023-04-09T16:17:59.958Z,18.10
2023-04-09T16:20:29.671Z,18.10
2023-04-09T16:22:58.833Z,18.00
2023-04-09T16:25:28.213Z,18.00
2023-04-09T16:27:57.350Z,17.90
2023-04-09T16:30:26.282Z,17.90
2023-04-09T16:32:56.013Z,17.80
2023-04-09T16:35:26.095Z,17.70
2023-04-09T16:37:54.727Z,17.60
2023-04-09T16:40:24.426Z,17.50
2023-04-09T16:42:53.050Z,17.40
2023-04-09T16:45:22.110Z,17.40
2023-04-09T16:47:54.013Z,17.30
2023-04-09T16:50:22.670Z,17.30
2023-04-09T16:52:52.658Z,17.20
2023-04-09T16:55:22.211Z,17.00
2023-04-09T16:57:56.139Z,16.90
2023-04-09T17:00:24.561Z,16.80
2023-04-09T17:02:53.625Z,16.70
2023-04-09T17:05:22.928Z,16.70
2023-04-09T17:07:53.706Z,16.60
2023-04-09T17:10:23.300Z,16.40
2023-04-09T17:12:52.256Z,16.40
2023-04-09T17:15:23.104Z,16.40
2023-04-09T17:17:53.816Z,16.30
2023-04-09T17:20:29.966Z,16.20
2023-04-09T17:23:01.023Z,16.10
2023-04-09T17:25:32.324Z,16.10
2023-04-09T17:28:01.694Z,16.00
2023-04-09T17:30:33.230Z,15.90
2023-04-09T17:33:03.762Z,15.80
2023-04-09T17:35:32.784Z,15.70
2023-04-09T17:38:04.882Z,15.70
2023-04-09T17:40:43.136Z,15.60
2023-04-09T17:43:12.907Z,15.50
2023-04-09T17:45:42.778Z,15.40
2023-04-09T17:48:12.495Z,15.40
2023-04-09T17:50:41.840Z,15.30
2023-04-09T17:53:17.423Z,15.30
2023-04-09T17:55:50.853Z,15.20
2023-04-09T17:58:20.740Z,15.20
2023-04-09T18:00:49.165Z,15.00
2023-04-09T18:03:19.251Z,15.10
2023-04-09T18:05:47.791Z,15.00
2023-04-09T18:08:17.621Z,14.90
2023-04-09T18:11:01.684Z,14.80
2023-04-09T18:13:38.341Z,14.80
2023-04-09T18:16:10.085Z,14.80
2023-04-09T18:18:38.525Z,14.70
2023-04-09T18:21:07.350Z,14.60
2023-04-09T18:23:37.380Z,14.60
2023-04-09T18:26:06.898Z,14.40
2023-04-09T18:28:35.544Z,14.40
2023-04-09T18:31:03.938Z,14.40
2023-04-09T18:33:32.563Z,14.30
2023-04-09T18:36:01.737Z,14.30
2023-04-09T18:38:30.524Z,14.30
2023-04-09T18:41:01.543Z,14.20
2023-04-09T18:43:30.150Z,14.20
2023-04-09T18:45:58.642Z,14.10
2023-04-09T18:48:27.654Z,14.10
2023-04-09T18:50:55.996Z,14.00
2023-04-09T18:53:25.066Z,13.90
2023-04-09T18:55:53.632Z,13.90
2023-04-09T18:58:24.033Z,13.90
2023-04-09T19:00:53.011Z,13.90
2023-04-09T19:03:21.984Z,13.80
2023-04-09T19:05:50.711Z,13.70
2023-04-09T19:08:19.123Z,13.60
2023-04-09T19:10:48.411Z,13.60
2023-04-09T19:13:17.027Z,13.50
2023-04-09T19:15:46.730Z,13.60
2023-04-09T19:18:15.160Z,13.60
2023-04-09T19:20:44.180Z,13.50
2023-04-09T19:23:12.494Z,13.50
2023-04-09T19:25:41.027Z,13.50
2023-04-09T19:28:09.499Z,13.40
2023-04-09T19:30:37.876Z,13.30
2023-04-09T19:33:07.721Z,13.20
2023-04-09T19:35:42.214Z,13.30
2023-04-09T19:38:10.595Z,13.30
2023-04-09T19:40:39.044Z,13.10
2023-04-09T19:43:07.617Z,13.10
2023-04-09T19:45:37.369Z,13.00
2023-04-09T19:48:07.586Z,13.00
2023-04-09T19:50:37.790Z,13.00
2023-04-09T19:53:07.169Z,12.90
2023-04-09T19:55:37.888Z,12.90
2023-04-09T19:58:06.801Z,13.00
2023-04-09T20:00:36.260Z,12.90
2023-04-09T20:03:06.029Z,12.90
2023-04-09T20:05:35.882Z,12.80
2023-04-09T20:08:04.494Z,12.90
2023-04-09T20:10:32.746Z,12.80
2023-04-09T20:13:01.652Z,12.80
2023-04-09T20:15:30.239Z,12.80
2023-04-09T20:17:58.734Z,12.70
2023-04-09T20:20:27.266Z,12.60
2023-04-09T20:22:57.648Z,12.60
2023-04-09T20:25:26.394Z,12.60
2023-04-09T20:27:55.330Z,12.60
2023-04-09T20:30:23.869Z,12.60
2023-04-09T20:32:52.310Z,12.50
2023-04-09T20:35:40.398Z,12.50
2023-04-09T20:38:10.571Z,12.50
2023-04-09T20:40:39.035Z,12.40
2023-04-09T20:43:07.677Z,12.40
2023-04-09T20:45:36.077Z,12.40
2023-04-09T20:48:04.633Z,12.40
2023-04-09T20:50:33.058Z,12.30
2023-04-09T20:53:01.535Z,12.30
2023-04-09T20:55:31.192Z,12.30
2023-04-09T20:58:00.232Z,12.20
2023-04-09T21:00:28.644Z,12.20
2023-04-09T21:02:57.008Z,12.10
2023-04-09T21:05:25.328Z,12.10
2023-04-09T21:07:54.239Z,12.00
2023-04-09T21:10:22.819Z,11.90
2023-04-09T21:12:52.369Z,11.90
2023-04-09T21:15:20.683Z,11.90
2023-04-09T21:17:49.152Z,11.90
2023-04-09T21:20:17.556Z,11.70
2023-04-09T21:22:45.908Z,11.80
2023-04-09T21:25:15.518Z,11.80
2023-04-09T21:27:44.097Z,11.70
2023-04-09T21:30:13.986Z,11.70
2023-04-09T21:32:42.276Z,11.60
2023-04-09T21:35:10.648Z,11.60
2023-04-09T21:37:39.024Z,11.60
2023-04-09T21:40:09.665Z,11.50
2023-04-09T21:42:38.115Z,11.40
2023-04-09T21:45:07.784Z,11.30
2023-04-09T21:47:37.668Z,11.30
2023-04-09T21:50:06.753Z,11.40
2023-04-09T21:52:35.619Z,11.30
2023-04-09T21:55:10.370Z,11.30
2023-04-09T21:57:44.480Z,11.20
2023-04-09T22:00:16.206Z,11.20
2023-04-09T22:02:46.591Z,11.10
2023-04-09T22:05:15.805Z,11.10
2023-04-09T22:07:45.178Z,11.10
2023-04-09T22:10:13.756Z,11.10
2023-04-09T22:12:42.317Z,11.00
2023-04-09T22:15:12.183Z,11.00
2023-04-09T22:17:40.631Z,11.00
2023-04-09T22:20:11.159Z,11.00
2023-04-09T22:22:39.938Z,10.90
2023-04-09T22:25:09.024Z,10.80
2023-04-09T22:27:37.427Z,10.90
2023-04-09T22:30:06.586Z,10.80
2023-04-09T22:32:35.152Z,10.70
2023-04-09T22:36:11.393Z,10.80
2023-04-09T22:38:41.486Z,10.70
2023-04-09T22:41:10.201Z,10.70
2023-04-09T22:43:46.882Z,10.60
2023-04-09T22:46:15.240Z,10.50
2023-04-09T22:48:45.028Z,10.60
2023-04-09T22:51:14.537Z,10.50
2023-04-09T22:53:44.283Z,10.50
2023-04-09T22:56:12.658Z,10.50
2023-04-09T22:58:41.094Z,10.40
2023-04-09T23:01:09.593Z,10.30
2023-04-09T23:03:37.938Z,10.40
2023-04-09T23:06:06.888Z,10.40
2023-04-09T23:08:35.264Z,10.30
2023-04-09T23:11:07.303Z,10.20
2023-04-09T23:13:35.660Z,10.20
2023-04-09T23:16:06.226Z,10.10
2023-04-09T23:18:35.901Z,10.20
2023-04-09T23:21:06.080Z,10.20
2023-04-09T23:23:34.563Z,10.10
2023-04-09T23:26:04.540Z,10.20
2023-04-09T23:28:33.045Z,10.00
2023-04-09T23:31:01.366Z,10.00
2023-04-09T23:33:29.603Z,10.00
2023-04-09T23:35:57.759Z,9.90
2023-04-09T23:38:26.186Z,9.90
2023-04-09T23:40:54.376Z,9.90
2023-04-09T23:43:23.951Z,9.80
2023-04-09T23:45:52.157Z,9.80
2023-04-09T23:48:20.319Z,9.70
2023-04-09T23:50:49.734Z,9.70
2023-04-09T23:53:17.976Z,9.80
2023-04-09T23:55:47.744Z,9.80
2023-04-09T23:58:16.050Z,9.70
